createdAt,value
2022-10-06T00:01:23.685Z,71.20
2022-10-06T00:03:52.639Z,70.90
2022-10-06T00:06:21.383Z,71.10
2022-10-06T00:08:50.092Z,70.70
2022-10-06T00:11:18.901Z,70.60
2022-10-06T00:13:47.676Z,70.80
2022-10-06T00:16:22.339Z,70.70
2022-10-06T00:18:51.626Z,70.80
2022-10-06T00:21:20.415Z,71.10
2022-10-06T00:23:49.361Z,71.20
2022-10-06T00:26:18.045Z,71.40
2022-10-06T00:28:48.311Z,71.40
2022-10-06T00:31:19.866Z,71.80
2022-10-06T00:33:50.887Z,71.80
2022-10-06T00:36:19.897Z,71.70
2022-10-06T00:38:48.635Z,71.60
2022-10-06T00:41:18.760Z,71.80
2022-10-06T00:43:51.182Z,71.80
2022-10-06T00:46:29.710Z,71.70
2022-10-06T00:49:05.894Z,71.70
2022-10-06T00:51:37.236Z,71.60
2022-10-06T00:54:06.742Z,71.40
2022-10-06T00:56:35.851Z,71.20
2022-10-06T00:59:04.851Z,71.00
2022-10-06T01:01:36.513Z,70.70
2022-10-06T01:04:10.033Z,70.50
2022-10-06T01:06:49.219Z,70.50
2022-10-06T01:09:20.678Z,70.40
2022-10-06T01:11:51.326Z,70.40
2022-10-06T01:14:22.483Z,70.40
2022-10-06T01:16:59.640Z,70.50
2022-10-06T01:19:40.730Z,70.60
2022-10-06T01:22:11.105Z,70.70
2022-10-06T01:24:41.802Z,70.80
2022-10-06T01:27:12.838Z,70.90
2022-10-06T01:29:42.632Z,70.90
2022-10-06T01:32:11.852Z,70.90
2022-10-06T01:34:40.830Z,71.00
2022-10-06T01:37:10.023Z,71.30
2022-10-06T01:39:38.974Z,71.50
2022-10-06T01:42:09.750Z,71.50
2022-10-06T01:44:39.671Z,71.60
2022-10-06T01:47:09.378Z,71.40
2022-10-06T01:49:38.444Z,71.30
2022-10-06T01:52:07.515Z,71.40
2022-10-06T01:54:37.410Z,71.20
2022-10-06T01:57:06.822Z,71.00
2022-10-06T01:59:37.435Z,71.00
2022-10-06T02:02:06.550Z,70.60
2022-10-06T02:04:35.389Z,70.40
2022-10-06T02:07:05.132Z,70.30
2022-10-06T02:09:42.202Z,70.10
2022-10-06T02:12:11.587Z,70.00
2022-10-06T02:14:44.824Z,69.90
2022-10-06T02:17:14.052Z,69.90
2022-10-06T02:19:42.810Z,69.70
2022-10-06T02:22:11.343Z,69.90
2022-10-06T02:24:40.050Z,69.80
2022-10-06T02:27:09.176Z,70.00
2022-10-06T02:29:38.683Z,70.00
2022-10-06T02:32:08.848Z,70.10
2022-10-06T02:34:37.983Z,70.20
2022-10-06T02:37:06.770Z,70.20
2022-10-06T02:39:35.544Z,70.30
2022-10-06T02:42:05.346Z,70.30
2022-10-06T02:44:34.050Z,70.40
2022-10-06T02:47:03.851Z,70.50
2022-10-06T02:49:33.976Z,70.60
2022-10-06T02:52:03.178Z,70.60
2022-10-06T02:54:32.963Z,70.80
2022-10-06T02:57:01.757Z,71.00
2022-10-06T02:59:30.586Z,71.00
2022-10-06T03:01:59.804Z,71.10
2022-10-06T03:04:28.863Z,71.10
2022-10-06T03:06:59.434Z,71.20
2022-10-06T03:09:33.071Z,71.30
2022-10-06T03:12:02.512Z,71.40
2022-10-06T03:14:37.090Z,71.40
2022-10-06T03:17:09.800Z,71.40
2022-10-06T03:19:42.638Z,71.40
2022-10-06T03:22:13.121Z,71.30
2022-10-06T03:24:47.559Z,71.30
2022-10-06T03:27:16.673Z,71.40
2022-10-06T03:29:45.995Z,71.40
2022-10-06T03:32:15.881Z,71.50
2022-10-06T03:34:46.716Z,71.60
2022-10-06T03:37:19.052Z,71.70
2022-10-06T03:39:48.165Z,71.80
2022-10-06T03:42:17.504Z,71.90
2022-10-06T03:44:47.537Z,72.00
2022-10-06T03:47:17.410Z,72.00
2022-10-06T03:49:47.626Z,71.90
2022-10-06T03:52:25.061Z,71.80
2022-10-06T03:54:55.167Z,71.90
2022-10-06T03:57:24.366Z,71.70
2022-10-06T03:59:53.220Z,71.70
2022-10-06T04:02:22.021Z,71.70
2022-10-06T04:04:51.027Z,71.60
2022-10-06T04:07:21.430Z,71.70
2022-10-06T04:09:50.216Z,71.70
2022-10-06T04:12:19.873Z,71.80
2022-10-06T04:14:48.723Z,72.00
2022-10-06T04:17:17.478Z,71.90
2022-10-06T04:19:46.829Z,72.40
2022-10-06T04:22:15.870Z,72.60
2022-10-06T04:24:46.295Z,72.60
2022-10-06T04:27:30.984Z,72.60
2022-10-06T04:30:13.615Z,72.70
2022-10-06T04:32:43.118Z,72.60
2022-10-06T04:35:13.743Z,72.70
2022-10-06T04:37:42.539Z,72.70
2022-10-06T04:40:13.343Z,72.70
2022-10-06T04:42:43.048Z,72.70
2022-10-06T04:45:15.815Z,72.60
2022-10-06T04:47:45.416Z,72.60
2022-10-06T04:50:14.682Z,72.50
2022-10-06T04:53:02.596Z,72.50
2022-10-06T04:55:33.834Z,72.50
2022-10-06T04:58:03.118Z,72.60
2022-10-06T05:00:32.479Z,72.60
2022-10-06T05:03:01.337Z,72.70
2022-10-06T05:05:30.416Z,72.70
2022-10-06T05:07:59.762Z,72.80
2022-10-06T05:10:29.388Z,72.90
2022-10-06T05:13:00.704Z,73.00
2022-10-06T05:15:31.579Z,73.20
2022-10-06T05:18:00.726Z,73.10
2022-10-06T05:20:29.884Z,73.10
2022-10-06T05:22:59.109Z,73.10
2022-10-06T05:25:28.036Z,73.10
2022-10-06T05:27:57.490Z,73.30
2022-10-06T05:30:27.853Z,73.30
2022-10-06T05:32:56.822Z,73.40
2022-10-06T05:35:26.383Z,73.40
2022-10-06T05:37:55.753Z,73.40
2022-10-06T05:40:25.028Z,73.40
2022-10-06T05:42:56.619Z,74.20
2022-10-06T05:45:27.897Z,73.50
2022-10-06T05:47:56.967Z,73.50
2022-10-06T05:50:26.117Z,73.50
2022-10-06T05:52:55.735Z,73.50
2022-10-06T05:55:26.237Z,73.50
2022-10-06T05:57:56.100Z,73.50
2022-10-06T06:00:25.380Z,73.60
2022-10-06T06:02:55.814Z,73.60
2022-10-06T06:05:25.167Z,73.60
2022-10-06T06:07:54.615Z,73.70
2022-10-06T06:10:23.542Z,73.70
2022-10-06T06:12:52.505Z,73.70
2022-10-06T06:16:04.374Z,73.70
2022-10-06T06:18:38.130Z,73.70
2022-10-06T06:21:10.503Z,73.60
2022-10-06T06:23:41.744Z,73.60
2022-10-06T06:26:13.535Z,73.80
2022-10-06T06:28:48.572Z,73.90
2022-10-06T06:31:21.288Z,73.90
2022-10-06T06:33:54.953Z,74.10
2022-10-06T06:36:28.384Z,74.20
2022-10-06T06:38:59.067Z,74.20
2022-10-06T06:41:30.891Z,74.30
2022-10-06T06:44:08.183Z,74.50
2022-10-06T06:46:40.691Z,74.70
2022-10-06T06:49:14.158Z,74.90
2022-10-06T06:51:50.449Z,75.10
2022-10-06T06:54:22.512Z,75.30
2022-10-06T06:56:56.603Z,75.30
2022-10-06T06:59:26.399Z,75.30
2022-10-06T07:01:58.001Z,76.20
2022-10-06T07:04:30.428Z,75.40
2022-10-06T07:06:59.703Z,75.60
2022-10-06T07:09:32.314Z,75.50
2022-10-06T07:12:05.561Z,75.40
2022-10-06T07:14:34.818Z,75.40
2022-10-06T07:17:34.929Z,75.30
2022-10-06T07:20:23.708Z,75.20
2022-10-06T07:23:10.496Z,75.20
2022-10-06T07:25:39.647Z,75.00
2022-10-06T07:28:12.335Z,75.00
2022-10-06T07:30:42.618Z,75.00
2022-10-06T07:33:15.771Z,75.00
2022-10-06T07:35:47.783Z,75.00
2022-10-06T07:38:24.376Z,75.20
2022-10-06T07:41:18.389Z,75.20
2022-10-06T07:43:49.143Z,75.20
2022-10-06T07:46:19.164Z,75.10
2022-10-06T07:49:07.351Z,75.10
2022-10-06T07:51:37.922Z,75.10
2022-10-06T07:54:08.438Z,75.10
2022-10-06T07:56:43.642Z,75.10
2022-10-06T07:59:12.939Z,75.10
2022-10-06T08:01:44.419Z,75.10
2022-10-06T08:04:14.087Z,75.00
2022-10-06T08:06:44.514Z,75.00
2022-10-06T08:09:13.271Z,75.00
2022-10-06T08:11:43.795Z,75.00
2022-10-06T08:14:15.124Z,75.10
2022-10-06T08:16:44.526Z,75.10
2022-10-06T08:19:14.582Z,75.10
2022-10-06T08:21:44.728Z,74.90
2022-10-06T08:24:13.713Z,75.20
2022-10-06T08:26:44.095Z,75.20
2022-10-06T08:29:13.186Z,74.90
2022-10-06T08:31:42.231Z,74.70
2022-10-06T08:34:12.403Z,74.20
2022-10-06T08:36:48.226Z,73.80
2022-10-06T08:39:31.828Z,73.70
2022-10-06T08:42:01.080Z,73.40
2022-10-06T08:44:35.637Z,73.20
2022-10-06T08:47:11.705Z,73.10
2022-10-06T08:49:45.306Z,72.80
2022-10-06T08:52:22.052Z,72.20
2022-10-06T08:55:03.156Z,71.80
2022-10-06T08:57:40.118Z,71.50
2022-10-06T09:00:13.610Z,70.30
2022-10-06T09:02:46.152Z,69.60
2022-10-06T09:05:25.366Z,69.20
2022-10-06T09:08:06.316Z,68.30
2022-10-06T09:10:49.183Z,67.90
2022-10-06T09:13:22.628Z,67.60
2022-10-06T09:15:56.840Z,67.60
2022-10-06T09:18:49.791Z,67.50
2022-10-06T09:21:30.670Z,67.70
2022-10-06T09:24:06.542Z,67.40
2022-10-06T09:26:36.917Z,67.40
2022-10-06T09:29:06.203Z,67.60
2022-10-06T09:31:39.876Z,67.40
2022-10-06T09:34:25.716Z,67.10
2022-10-06T09:37:03.300Z,66.30
2022-10-06T09:39:36.647Z,66.60
2022-10-06T09:42:12.934Z,66.70
2022-10-06T09:44:51.205Z,67.00
2022-10-06T09:47:31.801Z,67.20
2022-10-06T09:50:14.641Z,67.20
2022-10-06T09:52:48.595Z,67.10
2022-10-06T09:55:20.049Z,67.20
2022-10-06T09:57:53.802Z,67.40
2022-10-06T10:00:30.479Z,67.60
2022-10-06T10:03:02.692Z,67.20
2022-10-06T10:05:35.832Z,67.30
2022-10-06T10:08:09.129Z,67.80
2022-10-06T10:10:39.030Z,66.60
2022-10-06T10:13:24.186Z,67.10
2022-10-06T10:15:56.597Z,66.80
2022-10-06T10:18:27.740Z,66.90
2022-10-06T10:21:00.799Z,67.00
2022-10-06T10:23:33.311Z,67.00
2022-10-06T10:26:26.991Z,66.70
2022-10-06T10:29:14.351Z,65.60
2022-10-06T10:31:54.675Z,64.90
2022-10-06T10:34:42.060Z,63.30
2022-10-06T10:37:16.727Z,62.00
2022-10-06T10:39:51.084Z,61.50
2022-10-06T10:42:24.390Z,60.70
2022-10-06T10:45:00.416Z,60.10
2022-10-06T10:47:35.039Z,59.70
2022-10-06T10:50:10.890Z,60.40
2022-10-06T10:52:42.723Z,59.30
2022-10-06T10:55:23.216Z,59.50
2022-10-06T10:57:54.779Z,58.20
2022-10-06T11:00:28.153Z,58.10
2022-10-06T11:02:59.715Z,58.00
2022-10-06T11:05:40.642Z,57.80
2022-10-06T11:08:14.863Z,58.10
2022-10-06T11:10:48.797Z,57.30
2022-10-06T11:13:28.615Z,57.30
2022-10-06T11:16:17.097Z,56.70
2022-10-06T11:18:58.530Z,56.70
2022-10-06T11:21:34.599Z,56.80
2022-10-06T11:24:15.688Z,56.80
2022-10-06T11:27:18.408Z,55.70
2022-10-06T11:30:02.255Z,55.40
2022-10-06T11:32:46.289Z,54.90
2022-10-06T11:35:21.488Z,54.70
2022-10-06T11:37:56.721Z,54.90
2022-10-06T11:40:48.894Z,55.10
2022-10-06T11:43:24.681Z,54.70
2022-10-06T11:46:02.156Z,54.80
2022-10-06T11:48:34.734Z,54.10
2022-10-06T11:51:28.859Z,54.10
2022-10-06T11:53:58.862Z,54.20
2022-10-06T11:56:46.672Z,54.80
2022-10-06T11:59:31.251Z,54.70
2022-10-06T12:02:01.935Z,54.50
2022-10-06T12:04:32.692Z,53.70
2022-10-06T12:07:03.785Z,53.30
2022-10-06T12:09:51.753Z,52.30
2022-10-06T12:13:05.410Z,50.60
2022-10-06T12:19:04.433Z,46.70
2022-10-06T12:21:47.695Z,43.40
2022-10-06T12:24:33.175Z,42.50
2022-10-06T12:27:38.107Z,40.90
2022-10-06T12:30:21.178Z,40.10
2022-10-06T12:32:57.295Z,38.00
2022-10-06T12:35:31.913Z,37.00
2022-10-06T12:38:05.927Z,35.30
2022-10-06T12:40:49.756Z,35.50
2022-10-06T12:43:35.398Z,34.90
2022-10-06T12:46:12.849Z,35.10
2022-10-06T12:48:51.958Z,35.40
2022-10-06T12:51:30.305Z,35.70
2022-10-06T12:54:08.990Z,36.10
2022-10-06T12:56:39.774Z,36.40
2022-10-06T12:59:20.727Z,37.00
2022-10-06T13:01:51.239Z,37.40
2022-10-06T13:04:35.184Z,37.90
2022-10-06T13:07:10.285Z,38.30
2022-10-06T13:09:40.586Z,38.70
2022-10-06T13:12:24.579Z,38.80
2022-10-06T13:15:16.867Z,39.20
2022-10-06T13:17:49.371Z,40.00
2022-10-06T13:20:26.967Z,39.80
2022-10-06T13:22:59.912Z,39.80
2022-10-06T13:25:45.508Z,40.30
2022-10-06T13:28:22.962Z,40.50
2022-10-06T13:30:53.696Z,40.70
2022-10-06T13:33:24.260Z,40.90
2022-10-06T13:35:55.151Z,40.70
2022-10-06T13:38:24.414Z,41.30
2022-10-06T13:41:26.756Z,41.40
2022-10-06T13:43:58.584Z,41.90
2022-10-06T13:46:30.688Z,41.90
2022-10-06T13:49:03.432Z,41.70
2022-10-06T13:51:34.092Z,41.70
2022-10-06T13:54:07.955Z,42.00
2022-10-06T13:56:41.064Z,42.00
2022-10-06T13:59:37.010Z,41.60
2022-10-06T14:02:25.163Z,41.90
2022-10-06T14:05:27.679Z,42.20
2022-10-06T14:08:02.310Z,42.60
2022-10-06T14:10:37.940Z,42.70
2022-10-06T14:13:11.254Z,42.50
2022-10-06T14:15:47.939Z,42.60
2022-10-06T14:18:21.390Z,42.50
2022-10-06T14:20:51.440Z,42.60
2022-10-06T14:23:45.006Z,42.80
2022-10-06T14:26:15.328Z,43.00
2022-10-06T14:28:51.368Z,43.20
2022-10-06T14:31:20.643Z,43.20
2022-10-06T14:33:52.014Z,43.40
2022-10-06T14:36:23.310Z,43.80
2022-10-06T14:38:54.850Z,43.80
2022-10-06T14:41:27.500Z,43.70
2022-10-06T14:43:58.923Z,43.30
2022-10-06T14:46:28.214Z,43.50
2022-10-06T14:48:57.928Z,43.50
2022-10-06T14:51:29.323Z,43.40
2022-10-06T14:54:00.350Z,43.50
2022-10-06T14:56:32.206Z,43.50
2022-10-06T14:59:05.741Z,43.40
2022-10-06T15:01:36.362Z,43.80
2022-10-06T15:04:07.298Z,43.80
2022-10-06T15:06:53.795Z,43.20
2022-10-06T15:09:23.758Z,43.20
2022-10-06T15:11:53.980Z,43.00
2022-10-06T15:14:24.590Z,42.80
2022-10-06T15:16:54.638Z,43.10
2022-10-06T15:19:23.457Z,42.80
2022-10-06T15:21:52.299Z,42.90
2022-10-06T15:24:21.440Z,42.60
2022-10-06T15:27:07.834Z,42.70
2022-10-06T15:29:38.180Z,42.80
2022-10-06T15:32:08.232Z,42.80
2022-10-06T15:34:37.944Z,43.00
2022-10-06T15:37:07.703Z,43.10
2022-10-06T15:39:37.705Z,43.50
2022-10-06T15:42:08.573Z,44.50
2022-10-06T15:44:39.063Z,44.60
2022-10-06T15:47:08.699Z,44.30
2022-10-06T15:49:41.528Z,44.50
2022-10-06T15:52:13.155Z,45.30
2022-10-06T15:54:42.357Z,45.30
2022-10-06T15:57:17.867Z,45.70
2022-10-06T15:59:49.722Z,46.20
2022-10-06T16:02:19.948Z,46.00
2022-10-06T16:05:16.354Z,46.20
2022-10-06T16:07:45.207Z,46.90
2022-10-06T16:10:14.474Z,47.10
2022-10-06T16:12:43.341Z,47.40
2022-10-06T16:15:14.135Z,47.80
2022-10-06T16:17:43.060Z,48.00
2022-10-06T16:20:12.653Z,48.10
2022-10-06T16:22:42.035Z,48.20
2022-10-06T16:25:12.856Z,48.60
2022-10-06T16:27:41.827Z,49.00
2022-10-06T16:30:12.259Z,49.10
2022-10-06T16:32:42.741Z,48.80
2022-10-06T16:35:17.434Z,48.70
2022-10-06T16:37:49.967Z,49.20
2022-10-06T16:40:18.951Z,49.70
2022-10-06T16:42:49.610Z,50.00
2022-10-06T16:45:18.588Z,50.20
2022-10-06T16:47:49.060Z,50.20
2022-10-06T16:50:17.964Z,50.10
2022-10-06T16:52:47.415Z,49.90
2022-10-06T16:55:16.646Z,50.20
2022-10-06T16:57:45.653Z,50.50
2022-10-06T17:00:15.456Z,50.70
2022-10-06T17:02:44.410Z,50.90
2022-10-06T17:05:14.972Z,51.00
2022-10-06T17:07:44.033Z,51.10
2022-10-06T17:10:20.588Z,51.30
2022-10-06T17:12:50.482Z,51.60
2022-10-06T17:15:19.504Z,51.80
2022-10-06T17:17:48.905Z,52.00
2022-10-06T17:20:19.638Z,52.20
2022-10-06T17:22:50.216Z,52.50
2022-10-06T17:25:19.119Z,52.50
2022-10-06T17:27:49.129Z,52.70
2022-10-06T17:30:18.241Z,52.80
2022-10-06T17:32:47.789Z,53.00
2022-10-06T17:35:19.770Z,53.60
2022-10-06T17:37:51.116Z,53.20
2022-10-06T17:40:20.793Z,53.40
2022-10-06T17:42:49.502Z,53.60
2022-10-06T17:45:21.234Z,53.70
2022-10-06T17:47:51.643Z,53.80
2022-10-06T17:50:20.817Z,53.90
2022-10-06T17:52:50.928Z,54.00
2022-10-06T17:55:20.687Z,54.30
2022-10-06T17:57:50.296Z,54.40
2022-10-06T18:00:19.443Z,54.60
2022-10-06T18:02:48.733Z,54.70
2022-10-06T18:05:17.843Z,54.90
2022-10-06T18:07:46.812Z,55.00
2022-10-06T18:10:34.921Z,55.10
2022-10-06T18:13:04.016Z,55.30
2022-10-06T18:15:36.542Z,55.20
2022-10-06T18:18:05.649Z,55.00
2022-10-06T18:20:40.759Z,54.90
2022-10-06T18:23:10.083Z,55.10
2022-10-06T18:25:40.518Z,55.20
2022-10-06T18:28:10.324Z,55.10
2022-10-06T18:30:40.996Z,55.20
2022-10-06T18:36:12.282Z,55.20
2022-10-06T18:38:44.742Z,55.40
2022-10-06T18:41:17.794Z,55.50
2022-10-06T18:43:47.514Z,55.70
2022-10-06T18:46:36.116Z,55.80
2022-10-06T18:49:10.429Z,55.90
2022-10-06T18:51:41.339Z,56.10
2022-10-06T18:54:13.346Z,56.10
2022-10-06T18:56:46.156Z,55.90
2022-10-06T18:59:16.310Z,56.00
2022-10-06T19:01:48.140Z,56.10
2022-10-06T19:04:19.875Z,56.20
2022-10-06T19:06:51.507Z,56.40
2022-10-06T19:09:22.682Z,56.40
2022-10-06T19:11:55.870Z,56.50
2022-10-06T19:14:26.232Z,56.60
2022-10-06T19:16:58.785Z,56.70
2022-10-06T19:19:30.138Z,56.90
2022-10-06T19:22:01.300Z,57.10
2022-10-06T19:24:33.739Z,57.30
2022-10-06T19:27:09.363Z,57.30
2022-10-06T19:29:44.051Z,57.40
2022-10-06T19:32:16.060Z,57.50
2022-10-06T19:34:45.522Z,57.60
2022-10-06T19:37:16.183Z,57.60
2022-10-06T19:39:48.117Z,57.70
2022-10-06T19:42:38.035Z,57.70
2022-10-06T19:45:08.421Z,57.90
2022-10-06T19:47:37.875Z,57.80
2022-10-06T19:50:12.434Z,57.80
2022-10-06T19:52:42.793Z,58.00
2022-10-06T19:55:11.604Z,58.00
2022-10-06T19:57:42.950Z,58.00
2022-10-06T20:00:13.538Z,58.00
2022-10-06T20:02:43.725Z,58.10
2022-10-06T20:05:14.281Z,58.10
2022-10-06T20:07:45.259Z,58.20
2022-10-06T20:10:15.292Z,58.20
2022-10-06T20:12:46.000Z,58.20
2022-10-06T20:15:14.887Z,58.20
2022-10-06T20:17:45.520Z,58.30
2022-10-06T20:20:15.806Z,58.20
2022-10-06T20:22:45.426Z,58.30
2022-10-06T20:25:14.174Z,58.30
2022-10-06T20:27:43.724Z,58.30
2022-10-06T20:30:14.979Z,58.20
2022-10-06T20:32:43.747Z,58.70
2022-10-06T20:35:13.122Z,58.60
2022-10-06T20:37:42.363Z,58.60
2022-10-06T20:40:29.742Z,58.60
2022-10-06T20:43:00.739Z,58.60
2022-10-06T20:45:30.961Z,58.80
2022-10-06T20:48:00.108Z,58.80
2022-10-06T20:50:31.915Z,58.90
2022-10-06T20:53:00.915Z,58.90
2022-10-06T20:55:30.744Z,58.90
2022-10-06T20:58:00.011Z,59.00
2022-10-06T21:00:30.441Z,59.00
2022-10-06T21:03:00.032Z,59.00
2022-10-06T21:05:32.958Z,59.10
2022-10-06T21:08:01.825Z,59.10
2022-10-06T21:10:30.644Z,59.10
2022-10-06T21:12:59.501Z,59.10
2022-10-06T21:15:30.013Z,59.10
2022-10-06T21:17:58.800Z,59.20
2022-10-06T21:20:27.821Z,59.20
2022-10-06T21:22:56.752Z,59.30
2022-10-06T21:25:25.804Z,59.30
2022-10-06T21:27:54.593Z,59.50
2022-10-06T21:30:24.292Z,59.30
2022-10-06T21:32:54.897Z,59.30
2022-10-06T21:35:23.939Z,59.30
2022-10-06T21:37:52.689Z,59.40
2022-10-06T21:40:21.435Z,59.50
2022-10-06T21:42:50.211Z,59.40
2022-10-06T21:45:23.106Z,59.60
2022-10-06T21:47:54.886Z,59.60
2022-10-06T21:50:23.833Z,59.60
2022-10-06T21:52:52.890Z,59.60
2022-10-06T21:55:23.191Z,59.60
2022-10-06T21:57:52.158Z,59.80
2022-10-06T22:00:21.901Z,59.80
2022-10-06T22:02:50.969Z,59.80
2022-10-06T22:05:21.385Z,60.00
2022-10-06T22:07:50.503Z,60.10
2022-10-06T22:10:19.465Z,60.10
2022-10-06T22:12:48.408Z,60.10
2022-10-06T22:15:17.429Z,60.20
2022-10-06T22:17:47.625Z,60.10
2022-10-06T22:20:16.585Z,60.20
2022-10-06T22:22:46.836Z,60.20
2022-10-06T22:25:16.042Z,60.40
2022-10-06T22:27:45.597Z,60.40
2022-10-06T22:30:15.137Z,60.30
2022-10-06T22:32:44.108Z,60.20
2022-10-06T22:35:13.145Z,60.30
2022-10-06T22:37:42.420Z,60.30
2022-10-06T22:40:13.373Z,60.20
2022-10-06T22:42:42.418Z,60.30
2022-10-06T22:45:12.358Z,60.30
2022-10-06T22:47:41.397Z,60.20
2022-10-06T22:50:10.924Z,60.40
2022-10-06T22:52:40.245Z,60.50
2022-10-06T22:55:09.442Z,60.60
2022-10-06T22:57:39.481Z,60.60
2022-10-06T23:00:09.609Z,60.60
2022-10-06T23:02:38.440Z,60.70
2022-10-06T23:05:07.797Z,60.70
2022-10-06T23:07:36.757Z,60.80
2022-10-06T23:10:05.812Z,60.90
2022-10-06T23:12:34.837Z,60.90
2022-10-06T23:15:05.892Z,61.00
2022-10-06T23:17:34.662Z,61.00
2022-10-06T23:20:03.421Z,61.00
2022-10-06T23:22:32.466Z,60.90
2022-10-06T23:25:01.389Z,60.70
2022-10-06T23:27:30.174Z,60.50
2022-10-06T23:29:58.932Z,60.40
2022-10-06T23:32:29.309Z,60.30
2022-10-06T23:34:58.330Z,60.40
2022-10-06T23:37:27.485Z,60.40
2022-10-06T23:39:56.189Z,60.50
2022-10-06T23:42:24.900Z,60.60
2022-10-06T23:44:53.743Z,60.70
2022-10-06T23:47:22.801Z,60.70
2022-10-06T23:49:54.167Z,61.00
2022-10-06T23:52:23.124Z,61.10
2022-10-06T23:54:51.890Z,61.20
2022-10-06T23:57:20.801Z,61.20
2022-10-06T23:59:50.034Z,61.00
